x

Capers Nearshore (cap 2) (41029) Weather Station

6:08am - Mon 20th Nov 2017 All times are EST. -5 hours from GMT.

  • Wind
    16mph, 22mph gusts
  • Sea Temp 62°f
  • Air Temp 48°f
  • Sea Pressure 1021.9mb
  • Capers Nearshore (cap 2)
  • Capers Nearshore (cap 2)

More Historic Weather Station data

Upgrade to MSW Pro to gain access to the past 30 days of data for over 8000 Wavebouys and Weather Stations around the globe.

Join

Comparision Forecast

View Surf forecast
   
Mon 11/20 6:08am 16 22 mph 1021.9mb 62f 48f
5:08am 20 27 mph 1021.3mb 62f 49f
4:08am 16 22 mph 1020.3mb 62f 49f
3:08am 18 27 mph 1020mb 62f 49f
2:08am 20 27 mph 1019.6mb 62f 49f
1:08am 20 29 mph 1019.4mb 62f 51f
12:08am 18 22 mph 1018.5mb 62f 51f
Sun 11/19 11:08pm 18 22 mph 1017.9mb 62f 53f
10:08pm 16 20 mph 1017.3mb 62f 54f
9:08pm 13 18 mph 1016.4mb 62f 55f
8:08pm 11 18 mph 1015.3mb 62f 57f
7:08pm 13 16 mph 1014.3mb 62f 58f
6:08pm 11 16 mph 1013.2mb 62f 59f
5:08pm 11 18 mph 1011.9mb 63f 61f
4:08pm 11 18 mph 1010.9mb 63f 62f
3:08pm 16 22 mph 1010.1mb 63f 62f
2:08pm 16 22 mph 1009.8mb 63f 61f
1:08pm 16 22 mph 1009.8mb 63f 61f
12:08pm 18 25 mph 1010.1mb 63f 61f
11:08am 18 25 mph 1010.3mb 63f 61f
10:08am 16 22 mph 1010.1mb 63f 61f
9:08am 18 25 mph 1009.5mb 64f 60f
8:08am 18 25 mph 1008.5mb 64f 59f
7:08am 13 22 mph 1007.3mb 64f 60f
6:08am 22 27 mph 1007.6mb 64f 62f
5:08am 22 31 mph 1006.2mb 64f 64f
4:08am 22 31 mph 1006.4mb 63f 64f
3:08am 25 34 mph 1006.4mb 63f 64f
2:08am 22 31 mph 1007.1mb 63f 64f
1:08am 20 27 mph 1008.2mb 63f 64f
12:08am 20 29 mph 1008.6mb 63f 64f
Sat 11/18 11:08pm 18 25 mph 1009.3mb 63f 64f
10:08pm 18 25 mph 1009.6mb 63f 64f
9:08pm 18 25 mph 1010.2mb 63f 64f
8:08pm 16 22 mph 1010.8mb 63f 64f
7:08pm 16 22 mph 1010.6mb 63f 63f
6:08pm 13 18 mph 1010.9mb 64f 63f
5:08pm 11 18 mph 1011.2mb 63f 64f
4:08pm 11 13 mph 1011.5mb 63f 65f
3:08pm 9 13 mph 1011.7mb 64f 66f
2:08pm 9 11 mph 1012.8mb 64f 67f
1:08pm 4 7 mph 1013.9mb 64f 68f
12:08pm 4 7 mph 1015.1mb 63f 66f
11:08am 4 9 mph 1016.4mb 63f 65f
10:08am 4 9 mph 1017.1mb 63f 64f
9:08am 7 9 mph 1017.3mb 63f 64f
8:08am 4 9 mph 1017.6mb 63f 62f
7:08am 9 13 mph 1017.6mb 63f 60f
6:08am 11 16 mph 1017.8mb 63f 59f
5:08am 11 18 mph 1017.9mb 62f 58f
4:08am 11 18 mph 1017.8mb 62f 58f
3:08am 13 18 mph 1018.4mb 62f 57f
2:08am 9 16 mph 1019.2mb 62f 57f
1:08am 11 16 mph 1019.5mb 62f 57f
12:08am 9 13 mph 1020.3mb 63f 56f
Fri 11/17 11:08pm 11 13 mph 1021.1mb 63f 56f
10:08pm 11 16 mph 1021.1mb 63f 56f
9:08pm 11 18 mph 1021mb 63f 56f
8:08pm 13 18 mph 1020.4mb 63f 55f
7:08pm 11 16 mph 1020.9mb 63f 55f
6:08pm 13 18 mph 1020.8mb 63f 55f
5:08pm 13 18 mph 1020.7mb 63f 55f
4:08pm 13 18 mph 1020.9mb 63f 56f
3:08pm 13 20 mph 1020.8mb 63f 55f
2:08pm 16 20 mph 1021.2mb 63f 55f
1:08pm 18 27 mph 1021.4mb 63f 54f
12:08pm 20 29 mph 1021.7mb 63f 54f
11:08am 22 29 mph 1022.1mb 63f 55f
10:08am 22 29 mph 1021.9mb 64f 55f
9:08am 20 27 mph 1021.8mb 64f 53f
8:08am 20 27 mph 1021.3mb 64f 54f
7:08am 22 27 mph 1020.5mb 64f 53f
6:08am 20 27 mph 1019.9mb 64f 54f
5:08am 22 29 mph 1019.2mb 64f 54f
4:08am 16 22 mph 1019.3mb 64f 54f
3:08am 11 13 mph 1019.4mb 64f 55f
2:08am 7 11 mph 1019.1mb 64f 55f
1:08am 4 9 mph 1018.8mb 64f 56f
12:08am 7 9 mph 1018.7mb 64f 57f
Thu 11/16 11:08pm 7 9 mph 1018.7mb 64f 58f
10:08pm 7 9 mph 1018.5mb 64f 59f
9:08pm 7 9 mph 1018.1mb 64f 59f
8:08pm 7 9 mph 1017.7mb 64f 59f
7:08pm 9 11 mph 1017.5mb 64f 59f
6:08pm 9 13 mph 1016.8mb 64f 59f
5:08pm 7 9 mph 1016.1mb 64f 60f
4:08pm 7 9 mph 1015.8mb 64f 62f
3:08pm 4 7 mph 1015.6mb 64f 63f
2:08pm 4 7 mph 1015.8mb 64f 64f
1:08pm 4 9 mph 1016.5mb 63f 61f